Time;durP1;ratioP1;P1;durP2;ratioP2;P2;SDS_P1;SDS_P2;PMS_P1;PMS_P2;Temp;Humidity;BMP_temperature;BMP_pressure;BME280_temperature;BME280_humidity;BME280_pressure;Samples;Min_cycle;Max_cycle;Signal;HPM_P1;HPM_P2
2023/01/09 00:01:18;;;;;;;28.55;21.27;;;10.60;99.90;;;;;;6222378;23;20003;-90
2023/01/09 00:03:45;;;;;;;23.95;19.90;;;10.60;99.90;;;;;;6222166;23;20008;-91
2023/01/09 00:06:15;;;;;;;23.25;19.33;;;10.70;99.90;;;;;;6222480;23;20008;-91
2023/01/09 00:08:41;;;;;;;26.20;18.33;;;10.80;99.90;;;;;;6222108;23;20020;-90
2023/01/09 00:11:08;;;;;;;24.13;18.30;;;10.80;99.90;;;;;;6222670;23;20004;-91
2023/01/09 00:13:35;;;;;;;25.65;18.55;;;10.90;99.90;;;;;;6222281;23;20090;-90
2023/01/09 00:16:04;;;;;;;24.90;17.88;;;10.90;99.90;;;;;;6222710;23;20000;-90
2023/01/09 00:18:35;;;;;;;21.45;17.38;;;10.90;99.90;;;;;;6224038;23;20429;-89
2023/01/09 00:21:05;;;;;;;20.70;17.33;;;11.00;99.90;;;;;;6224120;23;20058;-90
2023/01/09 00:23:32;;;;;;;21.00;18.30;;;11.00;99.90;;;;;;6222035;23;20008;-91
2023/01/09 00:26:07;;;;;;;22.95;18.92;;;11.00;99.90;;;;;;6247274;23;20015;-89
2023/01/09 00:28:35;;;;;;;22.10;19.02;;;11.00;99.90;;;;;;6222058;23;20016;-90
2023/01/09 00:31:03;;;;;;;25.20;19.25;;;11.00;99.90;;;;;;6221962;23;20472;-89
2023/01/09 00:33:35;;;;;;;21.38;18.63;;;11.00;99.90;;;;;;6222003;23;20019;-90
2023/01/09 00:36:01;;;;;;;23.35;18.63;;;10.90;99.90;;;;;;6221911;23;20004;-90
2023/01/09 00:38:28;;;;;;;20.33;18.17;;;10.80;99.90;;;;;;6222206;23;20000;-91
2023/01/09 00:40:55;;;;;;;24.77;17.23;;;10.70;99.90;;;;;;6222100;23;20402;-91
2023/01/09 00:43:28;;;;;;;18.25;16.20;;;10.60;99.90;;;;;;6222004;23;20006;-91
2023/01/09 00:45:55;;;;;;;26.33;16.85;;;10.50;99.90;;;;;;6223938;23;20034;-90
2023/01/09 00:48:26;;;;;;;19.98;16.65;;;10.30;99.90;;;;;;6226306;23;20020;-91
2023/01/09 00:50:57;;;;;;;21.42;17.58;;;10.40;99.90;;;;;;6249512;23;20083;-91
2023/01/09 00:53:31;;;;;;;25.23;17.65;;;10.30;99.90;;;;;;6221639;23;20008;-89
2023/01/09 00:56:04;;;;;;;24.88;17.55;;;10.30;99.90;;;;;;6221936;23;20065;-89
2023/01/09 00:58:33;;;;;;;24.23;17.20;;;10.20;99.90;;;;;;6215808;23;20013;-92
2023/01/09 01:01:00;;;;;;;25.15;17.13;;;10.10;99.90;;;;;;6190900;23;20007;-92
2023/01/09 01:03:27;;;;;;;23.98;18.40;;;10.10;99.90;;;;;;6191129;23;20501;-91
2023/01/09 01:08:38;;;;;;;24.85;16.55;;;10.00;99.90;;;;;;6190868;23;20016;-92
2023/01/09 01:11:50;;;;;;;23.10;17.80;;;9.80;99.90;;;;;;6194274;23;20020;-92
2023/01/09 01:14:29;;;;;;;28.50;18.15;;;9.80;99.90;;;;;;6112391;23;20017;-92
2023/01/09 01:17:19;;;;;;;27.73;18.02;;;9.80;99.90;;;;;;6116992;23;20029;-92
2023/01/09 01:19:46;;;;;;;28.83;18.70;;;9.80;99.90;;;;;;6078501;23;20026;-92
2023/01/09 01:22:12;;;;;;;20.02;16.33;;;9.70;99.90;;;;;;6103942;23;20041;-91
2023/01/09 01:24:39;;;;;;;20.63;16.55;;;9.70;99.90;;;;;;6103136;23;20021;-91
2023/01/09 01:27:06;;;;;;;21.05;16.65;;;9.60;99.90;;;;;;6102491;23;20018;-92
2023/01/09 01:29:41;;;;;;;24.52;16.95;;;9.50;99.90;;;;;;6118036;23;20096;-92
2023/01/09 01:32:11;;;;;;;26.30;18.73;;;9.30;99.90;;;;;;6157198;23;20010;-91
2023/01/09 01:34:46;;;;;;;24.83;17.40;;;9.20;99.90;;;;;;6157580;23;20009;-93
2023/01/09 01:37:15;;;;;;;22.80;16.73;;;9.10;99.90;;;;;;6157476;23;20195;-92
2023/01/09 01:39:42;;;;;;;25.40;18.33;;;9.10;99.90;;;;;;6152780;23;20045;-92
2023/01/09 01:42:12;;;;;;;31.33;17.20;;;9.00;99.90;;;;;;6157908;23;20014;-93
2023/01/09 01:45:12;;;;;;;16.73;14.90;;;9.00;99.90;;;;;;6159338;23;20006;-93
2023/01/09 01:48:04;;;;;;;22.08;14.82;;;9.00;99.90;;;;;;6144962;23;20014;-91
2023/01/09 01:50:44;;;;;;;20.98;15.65;;;8.90;99.90;;;;;;6156795;23;20016;-93
2023/01/09 01:53:31;;;;;;;18.88;14.60;;;8.90;99.90;;;;;;6227181;23;20016;-92
2023/01/09 01:56:13;;;;;;;24.13;14.73;;;8.90;99.90;;;;;;6200709;23;20008;-91
2023/01/09 01:59:04;;;;;;;15.60;13.50;;;8.90;99.90;;;;;;6201806;23;20121;-91
2023/01/09 02:01:55;;;;;;;19.52;14.20;;;8.90;99.90;;;;;;6200975;23;20027;-93
2023/01/09 02:04:43;;;;;;;20.25;14.30;;;8.90;99.90;;;;;;6232957;23;20004;-91
2023/01/09 02:07:20;;;;;;;17.55;12.93;;;8.90;99.90;;;;;;6225584;23;20365;-93
2023/01/09 02:09:56;;;;;;;17.75;13.13;;;9.00;99.90;;;;;;6225922;23;20008;-91
2023/01/09 02:12:26;;;;;;;18.95;14.02;;;9.10;99.90;;;;;;6223008;23;20012;-91
2023/01/09 02:14:58;;;;;;;17.92;13.02;;;9.00;99.90;;;;;;6222809;23;20019;-92
2023/01/09 02:17:28;;;;;;;19.38;12.93;;;9.10;99.90;;;;;;6200231;23;20062;-92
2023/01/09 02:20:34;;;;;;;23.88;14.70;;;9.00;99.90;;;;;;6198984;23;20004;-92
2023/01/09 02:23:44;;;;;;;15.02;12.77;;;9.00;99.90;;;;;;6223112;23;20012;-94
2023/01/09 02:26:37;;;;;;;20.02;13.40;;;8.90;99.90;;;;;;6223676;23;20326;-91
2023/01/09 02:29:30;;;;;;;16.63;12.60;;;8.70;99.90;;;;;;6224319;23;20099;-93
2023/01/09 02:32:03;;;;;;;15.00;13.45;;;8.70;99.90;;;;;;6199467;23;20011;-91
2023/01/09 02:34:45;;;;;;;14.95;11.35;;;8.80;99.90;;;;;;6197860;23;20044;-92
2023/01/09 02:37:30;;;;;;;14.73;12.48;;;8.70;99.90;;;;;;6199733;23;20004;-91
2023/01/09 02:40:51;;;;;;;19.42;12.77;;;8.80;99.90;;;;;;6249067;23;20066;-92
2023/01/09 02:43:18;;;;;;;17.27;12.02;;;8.70;99.90;;;;;;6253052;23;20019;-93
2023/01/09 02:45:45;;;;;;;20.20;12.93;;;8.60;99.90;;;;;;6226751;23;20000;-91
2023/01/09 02:48:12;;;;;;;13.07;11.73;;;8.60;99.90;;;;;;6237915;23;20056;-92
2023/01/09 02:51:20;;;;;;;18.00;12.85;;;8.60;99.90;;;;;;6239384;23;20019;-90
2023/01/09 02:54:07;;;;;;;16.85;12.50;;;8.50;99.90;;;;;;6230844;23;20035;-91
2023/01/09 02:57:19;;;;;;;14.75;11.23;;;8.50;99.90;;;;;;6204333;23;20481;-93
2023/01/09 03:00:10;;;;;;;15.23;11.75;;;8.40;99.90;;;;;;6253725;23;20004;-94
2023/01/09 03:06:58;;;;;;;14.27;11.27;;;8.20;99.90;;;;;;6208707;23;20019;-91
2023/01/09 03:09:40;;;;;;;14.10;11.75;;;8.20;99.90;;;;;;6226621;23;20020;-91
2023/01/09 03:12:17;;;;;;;15.65;11.80;;;8.10;99.90;;;;;;6226466;23;20004;-93
2023/01/09 03:14:52;;;;;;;16.92;12.77;;;8.10;99.90;;;;;;6212638;23;20146;-93
2023/01/09 03:17:31;;;;;;;14.63;11.95;;;8.10;99.90;;;;;;6229121;23;20012;-91
2023/01/09 03:20:06;;;;;;;14.88;11.05;;;8.10;99.90;;;;;;6222521;23;20008;-91
2023/01/09 03:22:33;;;;;;;17.73;10.95;;;8.10;99.90;;;;;;6222812;23;20015;-93
2023/01/09 03:25:06;;;;;;;18.08;12.15;;;8.10;99.90;;;;;;6222807;23;20059;-91
2023/01/09 03:27:33;;;;;;;12.85;11.18;;;8.10;99.90;;;;;;6222864;23;20042;-91
2023/01/09 03:30:00;;;;;;;16.05;12.07;;;8.10;99.90;;;;;;6232860;23;20134;-92
2023/01/09 03:32:29;;;;;;;20.75;12.55;;;8.20;99.90;;;;;;6226284;23;20008;-93
2023/01/09 03:34:56;;;;;;;17.67;11.93;;;8.40;99.90;;;;;;6223211;23;20011;-92
2023/01/09 03:37:26;;;;;;;18.10;11.48;;;8.40;99.90;;;;;;6221864;23;20004;-91
2023/01/09 03:39:53;;;;;;;18.20;11.63;;;8.40;99.90;;;;;;6222049;23;20342;-93
2023/01/09 03:42:22;;;;;;;16.25;11.95;;;8.30;99.90;;;;;;6221996;23;20083;-91
2023/01/09 03:44:55;;;;;;;19.60;11.80;;;8.20;99.90;;;;;;6223038;23;20495;-91
2023/01/09 03:47:22;;;;;;;21.65;13.27;;;8.00;99.90;;;;;;6225581;23;20389;-93
2023/01/09 03:49:49;;;;;;;18.10;12.07;;;8.10;99.90;;;;;;6224749;23;20319;-92
2023/01/09 03:52:16;;;;;;;13.90;11.73;;;8.10;99.90;;;;;;6223769;23;20004;-92
2023/01/09 03:54:42;;;;;;;17.05;11.32;;;8.00;99.90;;;;;;6247998;23;20032;-92
2023/01/09 03:57:09;;;;;;;18.48;12.25;;;8.00;99.90;;;;;;6248207;23;20028;-91
2023/01/09 03:59:36;;;;;;;15.15;11.40;;;7.90;99.90;;;;;;6248276;23;20414;-92
2023/01/09 04:02:06;;;;;;;18.60;12.75;;;8.00;99.90;;;;;;6247731;23;20016;-93
2023/01/09 04:04:33;;;;;;;17.55;12.70;;;8.10;99.90;;;;;;6219982;23;20181;-93
2023/01/09 04:06:59;;;;;;;16.70;11.40;;;8.10;99.90;;;;;;6247442;23;20031;-93
2023/01/09 04:09:26;;;;;;;20.33;11.38;;;8.10;99.90;;;;;;6247734;23;20054;-92
2023/01/09 04:11:53;;;;;;;20.23;13.63;;;8.10;99.90;;;;;;6247640;23;20004;-92
2023/01/09 04:14:23;;;;;;;23.27;14.15;;;8.10;99.90;;;;;;6248525;23;20012;-93
2023/01/09 04:16:50;;;;;;;22.33;15.13;;;8.30;99.90;;;;;;6199575;23;20060;-93
2023/01/09 04:19:22;;;;;;;20.02;15.48;;;8.50;99.90;;;;;;6225141;23;20008;-93
2023/01/09 04:21:49;;;;;;;23.17;15.73;;;8.70;99.90;;;;;;6222923;23;20008;-91
2023/01/09 04:24:28;;;;;;;22.20;15.55;;;8.90;99.90;;;;;;6250764;23;20004;-92
2023/01/09 04:26:55;;;;;;;21.80;15.02;;;9.10;99.90;;;;;;6221738;23;20500;-90
2023/01/09 04:29:25;;;;;;;21.67;15.35;;;9.20;99.90;;;;;;6222277;23;20012;-92
2023/01/09 04:31:55;;;;;;;26.42;18.67;;;9.40;99.90;;;;;;6224791;23;20004;-92
2023/01/09 04:34:26;;;;;;;28.13;19.77;;;9.50;99.90;;;;;;6224281;23;20012;-92
2023/01/09 04:36:53;;;;;;;27.67;19.45;;;9.50;99.90;;;;;;6223640;23;20031;-92
2023/01/09 04:39:21;;;;;;;30.13;18.73;;;9.60;99.90;;;;;;6223659;23;20016;-92
2023/01/09 04:41:50;;;;;;;26.08;18.02;;;9.60;99.90;;;;;;6222842;23;20083;-93
2023/01/09 04:44:26;;;;;;;34.97;19.25;;;9.70;99.90;;;;;;6224096;23;20008;-93
2023/01/09 04:46:57;;;;;;;24.90;16.65;;;9.70;99.90;;;;;;6222812;23;20008;-91
2023/01/09 04:49:25;;;;;;;30.23;16.75;;;9.70;99.90;;;;;;6224278;23;20430;-91
2023/01/09 04:51:52;;;;;;;32.22;17.17;;;9.70;99.90;;;;;;6200944;23;20009;-91
2023/01/09 04:54:19;;;;;;;28.15;17.30;;;9.70;99.90;;;;;;6226366;23;20008;-92
2023/01/09 04:56:46;;;;;;;25.75;17.58;;;9.70;99.90;;;;;;6223368;23;20031;-92
2023/01/09 04:59:13;;;;;;;27.88;18.17;;;9.80;99.90;;;;;;6223913;23;20007;-91
2023/01/09 05:01:40;;;;;;;25.20;17.67;;;9.80;99.90;;;;;;6227499;23;20012;-92
2023/01/09 05:04:10;;;;;;;25.50;16.83;;;9.90;99.90;;;;;;6226884;23;20000;-91
2023/01/09 05:06:39;;;;;;;22.77;17.38;;;9.90;99.90;;;;;;6224563;23;20016;-92
2023/01/09 05:09:06;;;;;;;25.25;18.20;;;9.90;99.90;;;;;;6227441;23;20067;-92
2023/01/09 05:11:35;;;;;;;30.90;17.63;;;9.90;99.90;;;;;;6228015;23;20004;-92
2023/01/09 05:14:02;;;;;;;36.20;18.10;;;10.00;99.90;;;;;;6227550;23;20000;-91
2023/01/09 05:16:39;;;;;;;22.95;18.40;;;10.00;99.90;;;;;;6224846;23;20016;-94
2023/01/09 05:19:51;;;;;;;27.95;19.77;;;10.00;99.90;;;;;;6230333;23;20043;-92
2023/01/09 05:26:03;;;;;;;33.10;21.42;;;10.10;99.90;;;;;;6144937;23;20026;-90
2023/01/09 05:28:33;;;;;;;36.67;21.85;;;10.20;99.90;;;;;;6103785;23;20098;-91
2023/01/09 05:30:59;;;;;;;33.70;23.05;;;10.20;99.90;;;;;;6102274;23;20070;-91
2023/01/09 05:33:29;;;;;;;38.95;24.52;;;10.20;99.90;;;;;;6101887;23;20013;-91
2023/01/09 05:36:01;;;;;;;51.03;31.23;;;10.30;99.90;;;;;;6078111;23;20013;-91
2023/01/09 05:38:29;;;;;;;47.97;28.30;;;10.40;99.90;;;;;;6110651;22;20486;-91
2023/01/09 05:40:59;;;;;;;33.95;22.15;;;10.40;99.90;;;;;;6261121;22;20015;-90
2023/01/09 05:43:26;;;;;;;23.88;19.50;;;10.50;99.90;;;;;;6260763;22;20058;-92
2023/01/09 05:45:52;;;;;;;26.65;20.15;;;10.50;99.90;;;;;;6261962;22;20006;-90
2023/01/09 05:48:19;;;;;;;33.45;20.73;;;10.60;99.90;;;;;;6258492;22;20467;-91
2023/01/09 05:50:46;;;;;;;29.13;20.38;;;10.60;99.90;;;;;;6256491;22;20025;-93
2023/01/09 05:53:19;;;;;;;31.23;21.00;;;10.60;99.90;;;;;;6256838;22;20014;-91
2023/01/09 05:55:48;;;;;;;30.27;21.40;;;10.70;99.90;;;;;;6261307;22;19999;-92
2023/01/09 05:58:17;;;;;;;31.30;20.88;;;10.70;99.90;;;;;;6266647;22;20066;-91
2023/01/09 06:00:44;;;;;;;28.08;19.60;;;10.70;99.90;;;;;;6272545;22;20026;-93
2023/01/09 06:03:11;;;;;;;27.25;19.55;;;10.80;99.90;;;;;;6268735;22;20000;-90
2023/01/09 06:05:44;;;;;;;23.80;18.58;;;10.80;99.90;;;;;;6276227;22;20053;-92
2023/01/09 06:08:36;;;;;;;20.27;18.20;;;10.90;99.90;;;;;;6249372;22;20023;-93
2023/01/09 06:11:06;;;;;;;19.70;17.60;;;11.00;99.90;;;;;;6239882;22;20029;-92
2023/01/09 06:13:39;;;;;;;22.00;18.10;;;11.00;99.90;;;;;;6288570;22;20003;-94
2023/01/09 06:16:18;;;;;;;21.02;18.02;;;11.00;99.90;;;;;;6266053;22;20413;-93
2023/01/09 06:19:10;;;;;;;19.10;17.20;;;11.10;99.90;;;;;;6278441;22;20437;-94
2023/01/09 06:21:57;;;;;;;18.88;16.85;;;11.10;99.90;;;;;;6261825;22;20000;-92
2023/01/09 06:24:53;;;;;;;21.13;17.00;;;11.20;99.90;;;;;;6192337;23;20012;-92
2023/01/09 06:27:29;;;;;;;20.30;17.02;;;11.20;99.90;;;;;;6168312;23;20067;-93
2023/01/09 06:30:08;;;;;;;20.50;17.65;;;11.30;99.90;;;;;;6142438;23;20021;-93
2023/01/09 06:32:50;;;;;;;22.50;17.65;;;11.40;99.90;;;;;;6166735;23;20100;-93
2023/01/09 06:52:07;;;;;;;;;;;;;;;;;;;;;
2023/01/09 06:59:24;;;;;;;15.65;12.68;;;13.00;99.90;;;;;;6217218;23;20028;-92
2023/01/09 07:02:03;;;;;;;17.50;14.40;;;13.00;99.90;;;;;;6166414;23;20024;-92
2023/01/09 07:04:56;;;;;;;18.50;16.20;;;12.90;99.90;;;;;;6194256;23;20008;-93
2023/01/09 07:07:30;;;;;;;18.33;16.33;;;12.80;99.90;;;;;;6191001;23;20023;-92
2023/01/09 07:10:05;;;;;;;22.10;15.57;;;12.80;99.90;;;;;;6188379;23;20441;-95
2023/01/09 07:12:41;;;;;;;20.98;14.98;;;12.90;99.90;;;;;;6165546;23;20091;-95
2023/01/09 07:15:31;;;;;;;;;;;;;;;;;;;;;
2023/01/09 07:18:19;;;;;;;20.05;17.90;;;13.00;99.90;;;;;;6216050;23;20011;-94
2023/01/09 07:20:56;;;;;;;26.77;19.80;;;13.10;99.90;;;;;;6192064;23;20023;-94
2023/01/09 07:23:32;;;;;;;23.55;20.77;;;13.00;99.90;;;;;;6193486;23;20048;-92
2023/01/09 07:26:08;;;;;;;24.33;22.02;;;13.00;99.90;;;;;;6193360;23;20005;-94
2023/01/09 07:28:47;;;;;;;23.55;21.00;;;13.00;99.90;;;;;;6193089;23;20155;-94
2023/01/09 07:31:14;;;;;;;25.13;21.23;;;13.00;99.90;;;;;;6192699;23;20011;-92
2023/01/09 07:33:41;;;;;;;23.60;20.80;;;13.00;99.90;;;;;;6192882;23;20016;-92
2023/01/09 07:36:18;;;;;;;26.17;20.67;;;13.10;99.90;;;;;;6224540;23;20012;-92
2023/01/09 07:44:51;;;;;;;23.88;21.00;;;13.40;99.90;;;;;;6285957;22;20068;-93
2023/01/09 07:47:57;;;;;;;24.25;21.50;;;13.50;99.90;;;;;;6289210;22;20018;-92
2023/01/09 07:51:17;;;;;;;24.83;22.20;;;13.50;99.90;;;;;;6128554;23;20010;-93
2023/01/09 08:54:40;;;;;;;;;;;;;;;;;;;;;
2023/01/09 08:57:16;;;;;;;18.13;16.30;;;13.80;99.90;;;;;;6290944;22;20003;-93
2023/01/09 09:03:29;;;;;;;25.75;17.55;;;13.80;99.90;;;;;;6161771;23;20044;-92
2023/01/09 09:34:05;;;;;;;19.92;15.43;;;14.50;99.90;;;;;;6268389;22;20755;-92
2023/01/09 09:58:51;;;;;;;15.23;11.85;;;15.30;99.90;;;;;;6314048;22;20031;-92
2023/01/09 10:01:26;;;;;;;17.13;12.25;;;15.50;99.90;;;;;;6258283;22;20341;-92
2023/01/09 10:04:26;;;;;;;;;;;;;;;;;;;;;
2023/01/09 10:18:29;;;;;;;28.13;14.80;;;16.30;99.90;;;;;;6208063;22;20041;-93
2023/01/09 10:25:11;;;;;;;20.48;13.65;;;16.30;99.90;;;;;;6236901;22;20008;-94
2023/01/09 10:28:19;;;;;;;20.42;14.00;;;16.00;99.90;;;;;;6211707;23;20399;-93
2023/01/09 10:35:02;;;;;;;19.00;14.07;;;15.80;99.90;;;;;;6285349;22;20023;-92
2023/01/09 10:46:36;;;;;;;18.23;13.65;;;15.50;99.90;;;;;;6227283;22;20102;-93
2023/01/09 10:49:32;;;;;;;17.80;12.40;;;15.60;99.90;;;;;;6199190;23;20362;-92
2023/01/09 10:52:21;;;;;;;18.45;12.98;;;15.40;99.90;;;;;;6198237;23;20427;-92
2023/01/09 11:06:52;;;;;;;29.08;16.08;;;15.10;99.90;;;;;;6290880;22;20015;-93
2023/01/09 11:09:25;;;;;;;19.90;12.98;;;15.10;99.90;;;;;;6220899;22;20020;-94
2023/01/09 11:24:32;;;;;;;24.35;13.40;;;15.20;99.90;;;;;;6308329;22;20023;-93
2023/01/09 11:27:26;;;;;;;23.85;13.45;;;15.20;99.90;;;;;;6289464;22;20129;-91
2023/01/09 11:30:19;;;;;;;24.30;14.77;;;15.20;99.90;;;;;;6290504;22;20007;-92
2023/01/09 11:33:19;;;;;;;26.30;15.02;;;15.20;99.90;;;;;;6264694;22;20007;-93
2023/01/09 11:36:14;;;;;;;20.98;13.48;;;15.20;99.90;;;;;;6262835;22;20003;-93
2023/01/09 11:38:50;;;;;;;26.15;13.85;;;15.10;99.90;;;;;;6261152;22;20433;-92
2023/01/09 11:41:37;;;;;;;37.30;15.35;;;15.20;99.90;;;;;;6262026;22;20017;-92
2023/01/09 11:44:17;;;;;;;30.10;13.88;;;15.20;99.90;;;;;;6271399;22;20062;-92
2023/01/09 11:46:50;;;;;;;31.23;14.10;;;15.40;99.90;;;;;;6281752;22;20019;-92
2023/01/09 11:49:22;;;;;;;28.42;13.52;;;15.40;99.90;;;;;;6278629;22;20090;-90
2023/01/09 11:52:13;;;;;;;24.77;12.77;;;15.40;99.90;;;;;;6270685;22;20078;-94
2023/01/09 11:55:04;;;;;;;32.33;13.52;;;15.40;99.90;;;;;;6263346;22;20014;-92
2023/01/09 11:57:34;;;;;;;27.83;13.82;;;15.50;99.90;;;;;;6261181;22;20011;-92
2023/01/09 12:00:27;;;;;;;31.45;13.85;;;15.70;99.90;;;;;;6261290;22;20003;-93
